createdAt,value
2023-03-11T00:01:15.802Z,4.10
2023-03-11T00:03:43.798Z,3.37
2023-03-11T00:06:11.543Z,4.08
2023-03-11T00:08:43.083Z,3.25
2023-03-11T00:11:10.919Z,3.67
2023-03-11T00:13:39.735Z,3.30
2023-03-11T00:16:10.216Z,3.70
2023-03-11T00:18:41.896Z,4.37
2023-03-11T00:21:17.868Z,3.90
2023-03-11T00:23:46.896Z,4.03
2023-03-11T00:26:19.340Z,4.33
2023-03-11T00:28:50.763Z,4.30
2023-03-11T00:31:22.420Z,3.70
2023-03-11T00:33:54.266Z,3.12
2023-03-11T00:36:38.498Z,2.35
2023-03-11T00:39:09.270Z,2.40
2023-03-11T00:41:37.976Z,2.40
2023-03-11T00:44:07.551Z,2.30
2023-03-11T00:46:37.247Z,2.55
2023-03-11T00:49:07.272Z,2.17
2023-03-11T00:51:36.887Z,2.50
2023-03-11T00:54:06.712Z,2.50
2023-03-11T00:56:34.592Z,1.95
2023-03-11T00:59:02.220Z,2.15
2023-03-11T01:01:30.524Z,2.62
2023-03-11T01:03:58.979Z,2.10
2023-03-11T01:06:44.480Z,2.08
2023-03-11T01:11:31.099Z,3.65
2023-03-11T01:13:59.302Z,3.58
2023-03-11T01:16:27.025Z,3.70
2023-03-11T01:18:54.981Z,3.67
2023-03-11T01:21:23.140Z,3.90
2023-03-11T01:23:56.340Z,4.40
2023-03-11T01:26:24.468Z,3.65
2023-03-11T01:28:52.062Z,4.58
2023-03-11T01:31:19.976Z,4.80
2023-03-11T01:33:48.207Z,4.47
2023-03-11T01:36:19.487Z,4.60
2023-03-11T01:38:47.820Z,3.90
2023-03-11T01:41:16.275Z,4.70
2023-03-11T01:43:47.777Z,4.83
2023-03-11T01:46:35.999Z,4.65
2023-03-11T01:49:05.681Z,4.50
2023-03-11T01:51:41.846Z,4.15
2023-03-11T01:54:17.273Z,5.10
2023-03-11T01:56:46.180Z,4.60
2023-03-11T01:59:17.223Z,4.75
2023-03-11T02:01:48.802Z,4.45
2023-03-11T02:04:17.329Z,4.37
2023-03-11T02:06:45.351Z,5.03
2023-03-11T02:09:14.979Z,4.33
2023-03-11T02:11:43.524Z,3.90
2023-03-11T02:14:12.541Z,4.30
2023-03-11T02:16:40.511Z,3.45
2023-03-11T02:19:33.721Z,4.20
2023-03-11T02:22:03.040Z,4.37
2023-03-11T02:24:50.116Z,3.85
2023-03-11T02:27:21.697Z,3.85
2023-03-11T02:29:51.740Z,4.00
2023-03-11T02:32:21.186Z,4.05
2023-03-11T02:34:50.366Z,3.40
2023-03-11T02:37:19.559Z,4.00
2023-03-11T02:39:52.068Z,3.33
2023-03-11T02:42:32.461Z,3.67
2023-03-11T02:45:04.122Z,4.00
2023-03-11T02:47:33.054Z,3.80
2023-03-11T02:50:00.716Z,3.47
2023-03-11T02:52:29.576Z,3.75
2023-03-11T02:54:59.226Z,3.65
2023-03-11T02:57:27.080Z,3.72
2023-03-11T02:59:55.170Z,3.55
2023-03-11T03:02:24.579Z,3.98
2023-03-11T03:04:52.620Z,3.62
2023-03-11T03:07:22.602Z,3.20
2023-03-11T03:09:54.153Z,3.70
2023-03-11T03:12:24.451Z,3.70
2023-03-11T03:14:54.351Z,3.98
2023-03-11T03:17:22.266Z,3.60
2023-03-11T03:19:49.644Z,3.72
2023-03-11T03:22:18.056Z,3.20
2023-03-11T03:24:47.863Z,3.20
2023-03-11T03:27:15.768Z,3.10
2023-03-11T03:29:44.106Z,4.08
2023-03-11T03:32:12.929Z,3.08
2023-03-11T03:34:40.591Z,3.15
2023-03-11T03:37:09.260Z,3.02
2023-03-11T03:39:37.312Z,3.20
2023-03-11T03:42:06.412Z,3.37
2023-03-11T03:44:36.337Z,3.15
2023-03-11T03:47:04.366Z,2.62
2023-03-11T03:49:34.198Z,3.55
2023-03-11T03:52:02.486Z,3.60
2023-03-11T03:54:32.358Z,3.05
2023-03-11T03:57:01.453Z,3.08
2023-03-11T03:59:30.148Z,2.52
2023-03-11T04:01:59.215Z,3.33
2023-03-11T04:04:28.209Z,2.98
2023-03-11T04:06:59.058Z,2.60
2023-03-11T04:09:27.530Z,2.70
2023-03-11T04:11:56.993Z,2.77
2023-03-11T04:14:24.494Z,3.58
2023-03-11T04:16:54.519Z,3.08
2023-03-11T04:19:23.101Z,2.98
2023-03-11T04:21:52.191Z,2.52
2023-03-11T04:24:24.128Z,2.95
2023-03-11T04:26:52.719Z,2.58
2023-03-11T04:29:21.442Z,2.80
2023-03-11T04:31:51.188Z,3.10
2023-03-11T04:34:19.705Z,3.35
2023-03-11T04:36:47.550Z,3.92
2023-03-11T04:39:16.319Z,2.50
2023-03-11T04:41:45.641Z,2.95
2023-03-11T04:44:15.897Z,3.70
2023-03-11T04:46:44.682Z,2.50
2023-03-11T04:49:13.416Z,2.70
2023-03-11T04:51:42.332Z,2.67
2023-03-11T04:54:10.412Z,3.05
2023-03-11T04:56:38.249Z,2.27
2023-03-11T04:59:06.722Z,2.80
2023-03-11T05:01:35.864Z,2.50
2023-03-11T05:04:05.070Z,2.72
2023-03-11T05:06:32.686Z,3.10
2023-03-11T05:09:01.401Z,3.00
2023-03-11T05:11:30.007Z,2.85
2023-03-11T05:14:15.413Z,2.87
2023-03-11T05:16:46.260Z,2.90
2023-03-11T05:19:32.452Z,3.15
2023-03-11T05:22:03.162Z,3.30
2023-03-11T05:24:32.398Z,2.55
2023-03-11T05:27:01.653Z,2.70
2023-03-11T05:29:34.517Z,2.55
2023-03-11T05:32:02.378Z,2.70
2023-03-11T05:34:29.938Z,2.90
2023-03-11T05:37:01.439Z,3.25
2023-03-11T05:39:30.373Z,2.30
2023-03-11T05:41:58.564Z,2.58
2023-03-11T05:44:26.905Z,2.85
2023-03-11T05:46:57.313Z,2.40
2023-03-11T05:49:25.246Z,2.72
2023-03-11T05:51:56.756Z,2.58
2023-03-11T05:54:25.467Z,4.22
2023-03-11T05:56:54.782Z,3.00
2023-03-11T05:59:24.541Z,3.72
2023-03-11T06:01:53.814Z,3.15
2023-03-11T06:04:23.250Z,3.05
2023-03-11T06:06:51.371Z,2.77
2023-03-11T06:09:20.914Z,2.85
2023-03-11T06:11:49.433Z,3.62
2023-03-11T06:14:20.865Z,2.98
2023-03-11T06:16:50.093Z,2.92
2023-03-11T06:19:20.227Z,2.80
2023-03-11T06:21:48.947Z,3.75
2023-03-11T06:24:18.332Z,3.17
2023-03-11T06:26:46.005Z,3.15
2023-03-11T06:29:17.857Z,4.22
2023-03-11T06:31:49.033Z,2.45
2023-03-11T06:34:16.559Z,2.62
2023-03-11T06:36:44.360Z,2.40
2023-03-11T06:39:14.606Z,2.80
2023-03-11T06:41:43.266Z,2.75
2023-03-11T06:44:11.887Z,2.67
2023-03-11T06:46:48.183Z,4.55
2023-03-11T06:49:17.251Z,5.55
2023-03-11T06:51:48.118Z,15.10
2023-03-11T06:54:18.051Z,13.60
2023-03-11T06:56:46.080Z,10.50
2023-03-11T06:59:16.196Z,6.40
2023-03-11T07:01:46.560Z,4.53
2023-03-11T07:04:14.753Z,3.77
2023-03-11T07:06:43.812Z,4.25
2023-03-11T07:09:16.016Z,4.45
2023-03-11T07:11:45.113Z,7.60
2023-03-11T07:14:14.762Z,4.62
2023-03-11T07:16:45.401Z,4.95
2023-03-11T07:19:16.465Z,4.80
2023-03-11T07:21:44.400Z,5.40
2023-03-11T07:24:15.221Z,5.47
2023-03-11T07:26:44.824Z,5.00
2023-03-11T07:29:14.062Z,5.50
2023-03-11T07:31:42.720Z,6.15
2023-03-11T07:34:12.943Z,8.38
2023-03-11T07:36:44.469Z,7.15
2023-03-11T07:39:18.966Z,6.58
2023-03-11T07:41:47.213Z,5.75
2023-03-11T07:44:17.272Z,5.37
2023-03-11T07:46:46.026Z,5.15
2023-03-11T07:49:14.056Z,4.83
2023-03-11T07:51:44.112Z,4.75
2023-03-11T07:54:13.298Z,4.45
2023-03-11T07:56:42.240Z,5.10
2023-03-11T07:59:10.319Z,4.20
2023-03-11T08:01:40.219Z,4.40
2023-03-11T08:04:14.330Z,4.62
2023-03-11T08:06:43.878Z,4.47
2023-03-11T08:09:12.236Z,4.87
2023-03-11T08:11:53.934Z,4.58
2023-03-11T08:14:21.693Z,4.55
2023-03-11T08:16:50.370Z,4.33
2023-03-11T08:19:18.446Z,5.17
2023-03-11T08:21:46.616Z,5.25
2023-03-11T08:24:17.967Z,5.12
2023-03-11T08:26:46.588Z,5.80
2023-03-11T08:29:14.329Z,5.55
2023-03-11T08:31:43.295Z,6.65
2023-03-11T08:34:12.091Z,6.30
2023-03-11T08:36:40.364Z,9.45
2023-03-11T08:39:08.738Z,7.92
2023-03-11T08:41:36.929Z,7.90
2023-03-11T08:44:08.780Z,6.60
2023-03-11T08:46:39.045Z,5.95
2023-03-11T08:49:07.690Z,6.40
2023-03-11T08:51:36.868Z,5.62
2023-03-11T08:54:08.086Z,5.92
2023-03-11T08:56:35.901Z,6.55
2023-03-11T08:59:03.974Z,6.58
2023-03-11T09:01:32.449Z,6.55
2023-03-11T09:04:00.635Z,8.55
2023-03-11T09:06:30.694Z,9.80
2023-03-11T09:08:58.620Z,8.70
2023-03-11T09:11:26.839Z,9.93
2023-03-11T09:13:54.906Z,10.48
2023-03-11T09:16:25.469Z,9.80
2023-03-11T09:18:56.350Z,11.30
2023-03-11T09:21:24.957Z,11.90
2023-03-11T09:23:53.310Z,11.85
2023-03-11T09:26:22.192Z,11.65
2023-03-11T09:28:50.607Z,12.00
2023-03-11T09:31:19.243Z,12.00
2023-03-11T09:33:47.869Z,13.70
2023-03-11T09:36:20.705Z,13.40
2023-03-11T09:38:49.864Z,13.90
2023-03-11T09:41:21.906Z,15.38
2023-03-11T09:44:13.190Z,12.90
2023-03-11T09:46:55.578Z,10.32
2023-03-11T09:49:48.707Z,13.50
2023-03-11T09:52:20.600Z,14.68
2023-03-11T09:54:53.334Z,11.80
2023-03-11T09:57:25.873Z,13.85
2023-03-11T09:59:55.128Z,11.05
2023-03-11T10:02:29.371Z,12.80
2023-03-11T10:05:16.496Z,14.15
2023-03-11T10:07:48.552Z,14.58
2023-03-11T10:10:18.052Z,12.20
2023-03-11T10:13:05.758Z,13.83
2023-03-11T10:15:55.694Z,14.53
2023-03-11T10:18:43.187Z,16.12
2023-03-11T10:21:17.848Z,15.28
2023-03-11T10:24:21.661Z,16.48
2023-03-11T10:26:56.606Z,14.30
2023-03-11T10:29:30.629Z,18.32
2023-03-11T10:32:19.102Z,16.07
2023-03-11T10:34:53.558Z,15.83
2023-03-11T10:37:48.269Z,16.48
2023-03-11T10:40:24.716Z,18.07
2023-03-11T10:42:55.762Z,15.72
2023-03-11T10:45:33.119Z,15.28
2023-03-11T10:48:01.893Z,16.00
2023-03-11T10:50:36.282Z,16.48
2023-03-11T10:53:13.253Z,15.03
2023-03-11T10:55:51.130Z,15.48
2023-03-11T10:58:22.030Z,16.07
2023-03-11T11:01:09.313Z,16.15
2023-03-11T11:03:37.337Z,16.67
2023-03-11T11:06:08.383Z,16.40
2023-03-11T11:08:37.741Z,15.50
2023-03-11T11:11:22.433Z,14.93
2023-03-11T11:13:58.922Z,16.10
2023-03-11T11:16:29.025Z,16.27
2023-03-11T11:19:12.200Z,17.45
2023-03-11T11:21:52.774Z,16.77
2023-03-11T11:24:29.199Z,17.05
2023-03-11T11:27:15.687Z,16.90
2023-03-11T11:29:44.229Z,16.55
2023-03-11T11:32:26.492Z,15.85
2023-03-11T11:35:06.121Z,16.30
2023-03-11T11:37:36.961Z,16.17
2023-03-11T11:40:15.016Z,16.35
2023-03-11T11:43:07.352Z,15.53
2023-03-11T11:45:45.286Z,15.10
2023-03-11T11:48:19.824Z,14.28
2023-03-11T11:51:00.241Z,14.63
2023-03-11T11:53:47.063Z,14.30
2023-03-11T11:56:15.097Z,14.33
2023-03-11T11:58:42.923Z,16.02
2023-03-11T12:01:41.163Z,15.58
2023-03-11T12:04:30.021Z,15.55
2023-03-11T12:07:13.246Z,14.58
2023-03-11T12:10:21.661Z,14.60
2023-03-11T12:12:41.323Z,14.70
2023-03-11T12:15:18.650Z,14.13
2023-03-11T12:18:02.120Z,14.58
2023-03-11T12:20:39.677Z,14.35
2023-03-11T12:23:41.711Z,13.88
2023-03-11T12:26:19.299Z,13.13
2023-03-11T12:28:54.333Z,14.73
2023-03-11T12:31:26.246Z,15.40
2023-03-11T12:33:59.626Z,14.05
2023-03-11T12:36:38.989Z,15.20
2023-03-11T12:39:10.538Z,15.40
2023-03-11T12:41:44.430Z,13.78
2023-03-11T12:44:24.516Z,15.08
2023-03-11T12:47:02.330Z,15.43
2023-03-11T12:49:36.406Z,13.48
2023-03-11T12:52:12.035Z,14.65
2023-03-11T12:54:45.170Z,14.00
2023-03-11T12:57:25.866Z,14.03
2023-03-11T13:00:20.111Z,14.53
2023-03-11T13:03:16.264Z,14.47
2023-03-11T13:05:53.539Z,14.28
2023-03-11T13:08:24.902Z,13.60
2023-03-11T13:10:54.599Z,13.98
2023-03-11T13:13:35.424Z,14.65
2023-03-11T13:16:19.194Z,13.85
2023-03-11T13:18:51.516Z,14.50
2023-03-11T13:21:32.450Z,13.53
2023-03-11T13:24:25.652Z,13.30
2023-03-11T13:27:01.369Z,13.45
2023-03-11T13:29:52.513Z,13.60
2023-03-11T13:32:33.741Z,13.45
2023-03-11T13:35:30.964Z,13.25
2023-03-11T13:38:36.408Z,13.35
2023-03-11T13:43:40.119Z,12.55
2023-03-11T13:46:16.276Z,11.75
2023-03-11T13:48:48.339Z,11.85
2023-03-11T13:51:41.196Z,12.37
2023-03-11T13:54:33.895Z,11.05
2023-03-11T13:57:05.141Z,11.45
2023-03-11T13:59:39.385Z,12.25
2023-03-11T14:02:11.040Z,13.00
2023-03-11T14:04:44.027Z,11.28
2023-03-11T14:07:32.135Z,11.45
2023-03-11T14:10:18.931Z,11.43
2023-03-11T14:12:47.480Z,12.35
2023-03-11T14:15:25.212Z,11.97
2023-03-11T14:17:54.527Z,11.68
2023-03-11T14:20:26.398Z,11.95
2023-03-11T14:22:56.835Z,11.40
2023-03-11T14:25:29.232Z,11.78
2023-03-11T14:28:01.039Z,13.03
2023-03-11T14:30:34.663Z,12.13
2023-03-11T14:33:09.751Z,14.15
2023-03-11T14:35:39.878Z,18.17
2023-03-11T14:38:23.184Z,12.93
2023-03-11T14:40:55.804Z,13.13
2023-03-11T14:43:26.715Z,11.48
2023-03-11T14:45:55.545Z,12.10
2023-03-11T14:48:30.341Z,11.95
2023-03-11T14:51:01.210Z,13.70
2023-03-11T14:53:42.276Z,12.65
2023-03-11T14:56:37.989Z,11.88
2023-03-11T14:59:22.778Z,11.88
2023-03-11T15:01:52.045Z,11.75
2023-03-11T15:04:34.609Z,11.63
2023-03-11T15:07:04.612Z,9.73
2023-03-11T15:09:33.708Z,12.75
2023-03-11T15:12:07.409Z,10.82
2023-03-11T15:14:39.699Z,11.57
2023-03-11T15:17:33.957Z,10.55
2023-03-11T15:19:50.217Z,11.25
2023-03-11T15:22:27.470Z,13.20
2023-03-11T15:24:58.175Z,11.20
2023-03-11T15:27:36.451Z,11.60
2023-03-11T15:30:08.431Z,10.00
2023-03-11T15:32:40.453Z,11.38
2023-03-11T15:35:12.361Z,11.12
2023-03-11T15:37:41.981Z,12.00
2023-03-11T15:40:26.112Z,12.00
2023-03-11T15:43:17.719Z,12.25
2023-03-11T15:45:46.374Z,13.25
2023-03-11T15:48:14.805Z,12.65
2023-03-11T15:50:55.172Z,12.10
2023-03-11T15:53:24.606Z,11.38
2023-03-11T15:55:53.709Z,12.47
2023-03-11T15:58:22.386Z,12.10
2023-03-11T16:00:57.175Z,12.28
2023-03-11T16:03:25.565Z,11.75
2023-03-11T16:05:53.558Z,11.53
2023-03-11T16:08:22.449Z,11.90
2023-03-11T16:10:51.532Z,11.43
2023-03-11T16:13:19.985Z,11.35
2023-03-11T16:15:48.206Z,13.28
2023-03-11T16:18:17.749Z,12.28
2023-03-11T16:20:49.401Z,11.20
2023-03-11T16:23:26.797Z,12.23
2023-03-11T16:25:58.906Z,11.18
2023-03-11T16:28:28.088Z,11.45
2023-03-11T16:30:57.638Z,11.43
2023-03-11T16:33:27.696Z,11.65
2023-03-11T16:35:56.049Z,11.53
2023-03-11T16:38:24.496Z,11.97
2023-03-11T16:41:03.516Z,11.88
2023-03-11T16:43:32.594Z,11.73
2023-03-11T16:46:01.255Z,12.28
2023-03-11T16:48:29.406Z,12.50
2023-03-11T16:50:57.327Z,13.30
2023-03-11T16:53:26.708Z,13.90
2023-03-11T16:55:54.688Z,14.38
2023-03-11T16:58:23.890Z,13.85
2023-03-11T17:00:51.803Z,14.58
2023-03-11T17:03:22.770Z,12.65
2023-03-11T17:05:51.137Z,13.48
2023-03-11T17:08:19.062Z,14.25
2023-03-11T17:10:47.210Z,14.38
2023-03-11T17:13:18.462Z,15.05
2023-03-11T17:15:46.067Z,15.45
2023-03-11T17:18:15.473Z,15.65
2023-03-11T17:20:46.264Z,15.93
2023-03-11T17:23:14.180Z,15.25
2023-03-11T17:25:42.598Z,15.40
2023-03-11T17:28:11.348Z,16.10
2023-03-11T17:30:44.992Z,14.45
2023-03-11T17:33:13.723Z,16.32
2023-03-11T17:35:41.616Z,16.12
2023-03-11T17:38:09.558Z,16.90
2023-03-11T17:40:38.889Z,17.80
2023-03-11T17:43:08.071Z,17.20
2023-03-11T17:45:38.024Z,16.15
2023-03-11T17:48:06.110Z,17.37
2023-03-11T17:50:40.064Z,17.07
2023-03-11T17:53:08.474Z,18.25
2023-03-11T17:55:39.698Z,17.95
2023-03-11T17:58:08.138Z,18.00
2023-03-11T18:00:36.592Z,17.42
2023-03-11T18:03:05.697Z,18.37
2023-03-11T18:05:33.770Z,19.20
2023-03-11T18:08:02.334Z,18.80
2023-03-11T18:10:31.392Z,19.62
2023-03-11T18:13:00.160Z,18.73
2023-03-11T18:15:28.597Z,18.90
2023-03-11T18:17:57.170Z,19.30
2023-03-11T18:20:25.048Z,19.65
2023-03-11T18:22:56.364Z,21.30
2023-03-11T18:25:24.262Z,19.05
2023-03-11T18:27:52.549Z,20.08
2023-03-11T18:30:20.872Z,18.87
2023-03-11T18:32:49.956Z,18.40
2023-03-11T18:35:19.256Z,18.90
2023-03-11T18:37:47.201Z,18.57
2023-03-11T18:40:15.507Z,18.90
2023-03-11T18:42:44.121Z,17.48
2023-03-11T18:45:12.600Z,17.45
2023-03-11T18:47:40.254Z,18.05
2023-03-11T18:50:08.813Z,18.07
2023-03-11T18:52:37.454Z,18.45
2023-03-11T18:55:05.949Z,18.42
2023-03-11T18:57:34.131Z,18.57
2023-03-11T19:00:02.269Z,18.30
2023-03-11T19:02:30.115Z,18.87
2023-03-11T19:04:58.461Z,19.55
2023-03-11T19:07:26.707Z,18.48
2023-03-11T19:09:54.261Z,18.85
2023-03-11T19:12:22.294Z,18.17
2023-03-11T19:14:50.685Z,15.68
2023-03-11T19:17:19.312Z,16.07
2023-03-11T19:19:47.749Z,14.85
2023-03-11T19:22:16.890Z,14.60
2023-03-11T19:24:44.448Z,14.23
2023-03-11T19:27:12.399Z,16.15
2023-03-11T19:29:40.917Z,16.12
2023-03-11T19:32:09.545Z,16.30
2023-03-11T19:34:38.814Z,14.80
2023-03-11T19:37:11.105Z,15.32
2023-03-11T19:39:42.013Z,14.30
2023-03-11T19:42:10.412Z,14.90
2023-03-11T19:44:40.546Z,16.35
2023-03-11T19:47:09.399Z,16.15
2023-03-11T19:49:37.467Z,13.60
2023-03-11T19:52:08.410Z,13.68
2023-03-11T19:54:38.427Z,15.03
2023-03-11T19:57:08.046Z,15.05
2023-03-11T19:59:35.848Z,13.25
2023-03-11T20:02:04.757Z,12.88
2023-03-11T20:04:33.040Z,13.98
2023-03-11T20:07:01.729Z,13.05
2023-03-11T20:09:32.627Z,15.43
2023-03-11T20:12:01.425Z,15.65
2023-03-11T20:14:29.440Z,16.40
2023-03-11T20:16:57.418Z,15.90
2023-03-11T20:19:25.754Z,18.80
2023-03-11T20:21:53.897Z,22.20
2023-03-11T20:24:21.913Z,23.77
2023-03-11T20:26:51.375Z,25.40
2023-03-11T20:29:19.763Z,26.90
2023-03-11T20:31:48.255Z,25.35
2023-03-11T20:34:16.203Z,25.82
2023-03-11T20:36:44.406Z,21.55
2023-03-11T20:39:12.329Z,18.57
2023-03-11T20:41:41.549Z,17.02
2023-03-11T20:44:12.857Z,16.77
2023-03-11T20:46:44.169Z,16.85
2023-03-11T20:49:12.963Z,15.75
2023-03-11T20:51:42.703Z,15.68
2023-03-11T20:54:12.379Z,13.98
2023-03-11T20:56:40.966Z,13.00
2023-03-11T20:59:08.577Z,12.85
2023-03-11T21:01:37.197Z,12.23
2023-03-11T21:04:05.502Z,11.10
2023-03-11T21:06:36.568Z,11.10
2023-03-11T21:09:07.493Z,11.12
2023-03-11T21:11:35.390Z,10.60
2023-03-11T21:14:03.591Z,9.65
2023-03-11T21:16:33.541Z,8.85
2023-03-11T21:19:03.267Z,8.80
2023-03-11T21:21:34.804Z,7.50
2023-03-11T21:24:03.679Z,7.30
2023-03-11T21:26:31.666Z,7.20
2023-03-11T21:28:59.453Z,7.15
2023-03-11T21:31:30.525Z,6.87
2023-03-11T21:34:00.305Z,6.78
2023-03-11T21:36:29.861Z,8.45
2023-03-11T21:39:03.525Z,6.20
2023-03-11T21:41:31.430Z,6.67
2023-03-11T21:44:00.118Z,5.50
2023-03-11T21:46:32.208Z,6.28
2023-03-11T21:49:01.011Z,5.45
2023-03-11T21:51:29.925Z,6.10
2023-03-11T21:53:57.999Z,6.47
2023-03-11T21:56:25.710Z,8.50
2023-03-11T21:58:54.444Z,9.08
2023-03-11T22:01:22.418Z,7.55
2023-03-11T22:03:51.377Z,7.45
2023-03-11T22:06:19.502Z,5.72
2023-03-11T22:08:47.879Z,5.12
2023-03-11T22:11:20.107Z,5.22
2023-03-11T22:13:49.929Z,4.70
2023-03-11T22:16:19.395Z,5.33
2023-03-11T22:18:48.496Z,4.55
2023-03-11T22:21:21.498Z,5.08
2023-03-11T22:23:49.622Z,5.08
2023-03-11T22:26:17.562Z,4.45
2023-03-11T22:28:46.960Z,5.12
2023-03-11T22:31:15.790Z,5.08
2023-03-11T22:33:44.187Z,5.03
2023-03-11T22:36:12.262Z,4.75
2023-03-11T22:38:42.083Z,5.37
2023-03-11T22:41:13.666Z,6.00
2023-03-11T22:43:41.654Z,6.67
2023-03-11T22:46:09.974Z,5.35
2023-03-11T22:48:39.153Z,6.25
2023-03-11T22:51:07.096Z,6.17
2023-03-11T22:53:35.157Z,5.78
2023-03-11T22:58:54.607Z,5.15
2023-03-11T23:01:24.865Z,4.50
2023-03-11T23:03:53.861Z,4.80
2023-03-11T23:06:23.486Z,4.92
2023-03-11T23:09:00.446Z,4.30
2023-03-11T23:11:28.603Z,4.25
2023-03-11T23:13:57.339Z,4.40
2023-03-11T23:16:27.078Z,4.97
2023-03-11T23:18:56.970Z,4.20
2023-03-11T23:21:28.774Z,4.40
2023-03-11T23:23:57.349Z,4.40
2023-03-11T23:26:25.607Z,4.28
2023-03-11T23:28:54.308Z,4.30
2023-03-11T23:31:27.782Z,3.60
2023-03-11T23:33:56.213Z,3.35
2023-03-11T23:36:30.234Z,3.22
2023-03-11T23:38:58.610Z,3.37
2023-03-11T23:41:27.019Z,2.95
2023-03-11T23:43:56.777Z,2.27
2023-03-11T23:46:24.783Z,2.85
2023-03-11T23:48:54.304Z,2.58
2023-03-11T23:51:22.252Z,2.83
2023-03-11T23:53:50.584Z,3.77
2023-03-11T23:56:19.242Z,3.40
2023-03-11T23:58:48.095Z,3.10
